sensor_id;sensor_type;location;lat;lon;timestamp;temperature;humidity
23579;DHT22;11967;50.852;4.400;2024-02-04T00:02:23;12.30;99.90
23579;DHT22;11967;50.852;4.400;2024-02-04T00:04:51;12.20;99.90
23579;DHT22;11967;50.852;4.400;2024-02-04T00:07:16;12.20;99.90
23579;DHT22;11967;50.852;4.400;2024-02-04T00:09:42;12.20;99.90
23579;DHT22;11967;50.852;4.400;2024-02-04T00:12:10;12.30;99.90
23579;DHT22;11967;50.852;4.400;2024-02-04T00:14:35;12.30;99.90
23579;DHT22;11967;50.852;4.400;2024-02-04T00:17:01;12.20;99.90
23579;DHT22;11967;50.852;4.400;2024-02-04T00:19:27;12.20;99.90
23579;DHT22;11967;50.852;4.400;2024-02-04T00:21:52;12.10;99.90
23579;DHT22;11967;50.852;4.400;2024-02-04T00:24:18;12.10;99.90
23579;DHT22;11967;50.852;4.400;2024-02-04T00:26:45;12.10;99.90
23579;DHT22;11967;50.852;4.400;2024-02-04T00:29:11;12.20;99.90
23579;DHT22;11967;50.852;4.400;2024-02-04T00:31:36;12.10;99.90
23579;DHT22;11967;50.852;4.400;2024-02-04T00:34:02;12.20;99.90
23579;DHT22;11967;50.852;4.400;2024-02-04T00:36:28;12.20;99.90
23579;DHT22;11967;50.852;4.400;2024-02-04T00:38:54;12.20;99.90
23579;DHT22;11967;50.852;4.400;2024-02-04T00:41:19;12.20;99.90
23579;DHT22;11967;50.852;4.400;2024-02-04T00:43:45;12.10;99.90
23579;DHT22;11967;50.852;4.400;2024-02-04T00:46:11;12.10;99.90
23579;DHT22;11967;50.852;4.400;2024-02-04T00:48:37;12.20;99.90
23579;DHT22;11967;50.852;4.400;2024-02-04T00:51:03;12.20;99.90
23579;DHT22;11967;50.852;4.400;2024-02-04T00:53:29;12.20;99.90
23579;DHT22;11967;50.852;4.400;2024-02-04T00:56:00;12.10;99.90
23579;DHT22;11967;50.852;4.400;2024-02-04T00:58:26;12.20;99.90
23579;DHT22;11967;50.852;4.400;2024-02-04T01:00:52;12.30;99.90
23579;DHT22;11967;50.852;4.400;2024-02-04T01:03:17;12.10;99.90
23579;DHT22;11967;50.852;4.400;2024-02-04T01:05:43;12.20;99.90
23579;DHT22;11967;50.852;4.400;2024-02-04T01:08:09;12.20;99.90
23579;DHT22;11967;50.852;4.400;2024-02-04T01:10:35;12.20;99.90
23579;DHT22;11967;50.852;4.400;2024-02-04T01:13:00;12.10;99.90
23579;DHT22;11967;50.852;4.400;2024-02-04T01:15:26;12.20;99.90
23579;DHT22;11967;50.852;4.400;2024-02-04T01:17:51;12.20;99.90
23579;DHT22;11967;50.852;4.400;2024-02-04T01:20:18;12.20;99.90
23579;DHT22;11967;50.852;4.400;2024-02-04T01:22:44;12.20;99.90
23579;DHT22;11967;50.852;4.400;2024-02-04T01:25:10;12.20;99.90
23579;DHT22;11967;50.852;4.400;2024-02-04T01:27:36;12.30;99.90
23579;DHT22;11967;50.852;4.400;2024-02-04T01:30:02;12.20;99.90
23579;DHT22;11967;50.852;4.400;2024-02-04T01:32:28;12.20;99.90
23579;DHT22;11967;50.852;4.400;2024-02-04T01:34:53;12.20;99.90
23579;DHT22;11967;50.852;4.400;2024-02-04T01:37:19;12.20;99.90
23579;DHT22;11967;50.852;4.400;2024-02-04T01:39:44;12.20;99.90
23579;DHT22;11967;50.852;4.400;2024-02-04T01:42:10;12.20;99.90
23579;DHT22;11967;50.852;4.400;2024-02-04T01:44:36;12.20;99.90
23579;DHT22;11967;50.852;4.400;2024-02-04T01:47:02;12.20;99.90
23579;DHT22;11967;50.852;4.400;2024-02-04T01:49:28;12.20;99.90
23579;DHT22;11967;50.852;4.400;2024-02-04T01:51:55;12.20;99.90
23579;DHT22;11967;50.852;4.400;2024-02-04T01:54:23;12.20;99.90
23579;DHT22;11967;50.852;4.400;2024-02-04T01:56:52;12.10;99.90
23579;DHT22;11967;50.852;4.400;2024-02-04T01:59:23;12.10;99.90
23579;DHT22;11967;50.852;4.400;2024-02-04T02:01:56;12.20;99.90
23579;DHT22;11967;50.852;4.400;2024-02-04T02:04:22;12.20;99.90
23579;DHT22;11967;50.852;4.400;2024-02-04T02:06:48;12.10;99.90
23579;DHT22;11967;50.852;4.400;2024-02-04T02:09:14;12.30;99.90
23579;DHT22;11967;50.852;4.400;2024-02-04T02:11:42;12.20;99.90
23579;DHT22;11967;50.852;4.400;2024-02-04T02:14:15;12.20;99.90
23579;DHT22;11967;50.852;4.400;2024-02-04T02:16:43;12.30;99.90
23579;DHT22;11967;50.852;4.400;2024-02-04T02:19:31;12.30;99.90
23579;DHT22;11967;50.852;4.400;2024-02-04T02:24:42;12.50;99.90
23579;DHT22;11967;50.852;4.400;2024-02-04T02:27:08;12.50;99.90
23579;DHT22;11967;50.852;4.400;2024-02-04T02:29:34;12.50;99.90
23579;DHT22;11967;50.852;4.400;2024-02-04T02:32:01;12.50;99.90
23579;DHT22;11967;50.852;4.400;2024-02-04T02:34:30;12.50;99.90
23579;DHT22;11967;50.852;4.400;2024-02-04T02:37:17;12.50;99.90
23579;DHT22;11967;50.852;4.400;2024-02-04T02:42:22;12.50;99.90
23579;DHT22;11967;50.852;4.400;2024-02-04T02:44:50;12.50;99.90
23579;DHT22;11967;50.852;4.400;2024-02-04T02:47:17;12.50;99.90
23579;DHT22;11967;50.852;4.400;2024-02-04T02:49:44;12.50;99.90
23579;DHT22;11967;50.852;4.400;2024-02-04T02:52:09;12.40;99.90
23579;DHT22;11967;50.852;4.400;2024-02-04T02:54:35;12.50;99.90
23579;DHT22;11967;50.852;4.400;2024-02-04T02:57:01;12.50;99.90
23579;DHT22;11967;50.852;4.400;2024-02-04T02:59:27;12.50;99.90
23579;DHT22;11967;50.852;4.400;2024-02-04T03:01:53;12.40;99.90
23579;DHT22;11967;50.852;4.400;2024-02-04T03:04:18;12.50;99.90
23579;DHT22;11967;50.852;4.400;2024-02-04T03:06:44;12.40;99.90
23579;DHT22;11967;50.852;4.400;2024-02-04T03:09:10;12.50;99.90
23579;DHT22;11967;50.852;4.400;2024-02-04T03:11:36;12.60;99.90
23579;DHT22;11967;50.852;4.400;2024-02-04T03:14:03;12.60;99.90
23579;DHT22;11967;50.852;4.400;2024-02-04T03:16:29;12.60;99.90
23579;DHT22;11967;50.852;4.400;2024-02-04T03:18:54;12.60;99.90
23579;DHT22;11967;50.852;4.400;2024-02-04T03:21:20;12.60;99.90
23579;DHT22;11967;50.852;4.400;2024-02-04T03:23:45;12.70;99.90
23579;DHT22;11967;50.852;4.400;2024-02-04T03:26:11;12.80;99.90
23579;DHT22;11967;50.852;4.400;2024-02-04T03:28:41;12.70;99.90
23579;DHT22;11967;50.852;4.400;2024-02-04T03:31:07;12.60;99.90
23579;DHT22;11967;50.852;4.400;2024-02-04T03:33:32;12.60;99.90
23579;DHT22;11967;50.852;4.400;2024-02-04T03:35:58;12.50;99.90
23579;DHT22;11967;50.852;4.400;2024-02-04T03:38:24;12.50;99.90
23579;DHT22;11967;50.852;4.400;2024-02-04T03:40:49;12.50;99.90
23579;DHT22;11967;50.852;4.400;2024-02-04T03:43:15;12.50;99.90
23579;DHT22;11967;50.852;4.400;2024-02-04T03:45:41;12.60;99.90
23579;DHT22;11967;50.852;4.400;2024-02-04T03:48:07;12.60;99.90
23579;DHT22;11967;50.852;4.400;2024-02-04T03:50:32;12.60;99.90
23579;DHT22;11967;50.852;4.400;2024-02-04T03:52:58;12.60;99.90
23579;DHT22;11967;50.852;4.400;2024-02-04T03:55:24;12.60;99.90
23579;DHT22;11967;50.852;4.400;2024-02-04T03:57:49;12.60;99.90
23579;DHT22;11967;50.852;4.400;2024-02-04T04:00:15;12.50;99.90
23579;DHT22;11967;50.852;4.400;2024-02-04T04:02:41;12.50;99.90
23579;DHT22;11967;50.852;4.400;2024-02-04T04:05:11;12.50;99.90
23579;DHT22;11967;50.852;4.400;2024-02-04T04:07:39;12.60;99.90
23579;DHT22;11967;50.852;4.400;2024-02-04T04:10:05;12.60;99.90
23579;DHT22;11967;50.852;4.400;2024-02-04T04:12:31;12.50;99.90
23579;DHT22;11967;50.852;4.400;2024-02-04T04:14:57;12.40;99.90
23579;DHT22;11967;50.852;4.400;2024-02-04T04:17:22;12.40;99.90
23579;DHT22;11967;50.852;4.400;2024-02-04T04:19:48;12.50;99.90
23579;DHT22;11967;50.852;4.400;2024-02-04T04:22:14;12.40;99.90
23579;DHT22;11967;50.852;4.400;2024-02-04T04:24:39;12.40;99.90
23579;DHT22;11967;50.852;4.400;2024-02-04T04:27:05;12.40;99.90
23579;DHT22;11967;50.852;4.400;2024-02-04T04:29:30;12.40;99.90
23579;DHT22;11967;50.852;4.400;2024-02-04T04:31:56;12.40;99.90
23579;DHT22;11967;50.852;4.400;2024-02-04T04:34:22;12.30;99.90
23579;DHT22;11967;50.852;4.400;2024-02-04T04:36:47;12.30;99.90
23579;DHT22;11967;50.852;4.400;2024-02-04T04:39:13;12.30;99.90
23579;DHT22;11967;50.852;4.400;2024-02-04T04:41:41;12.30;99.90
23579;DHT22;11967;50.852;4.400;2024-02-04T04:44:07;12.30;99.90
23579;DHT22;11967;50.852;4.400;2024-02-04T04:46:33;12.20;99.90
23579;DHT22;11967;50.852;4.400;2024-02-04T04:48:59;12.30;99.90
23579;DHT22;11967;50.852;4.400;2024-02-04T04:51:26;12.30;99.90
23579;DHT22;11967;50.852;4.400;2024-02-04T04:53:53;12.30;99.90
23579;DHT22;11967;50.852;4.400;2024-02-04T04:56:18;12.30;99.90
23579;DHT22;11967;50.852;4.400;2024-02-04T04:58:44;12.30;99.90
23579;DHT22;11967;50.852;4.400;2024-02-04T05:01:10;12.40;99.90
23579;DHT22;11967;50.852;4.400;2024-02-04T05:03:35;12.40;99.90
23579;DHT22;11967;50.852;4.400;2024-02-04T05:06:01;12.30;99.90
23579;DHT22;11967;50.852;4.400;2024-02-04T05:08:26;12.30;99.90
23579;DHT22;11967;50.852;4.400;2024-02-04T05:10:52;12.40;99.90
23579;DHT22;11967;50.852;4.400;2024-02-04T05:13:18;12.30;99.90
23579;DHT22;11967;50.852;4.400;2024-02-04T05:15:43;12.30;99.90
23579;DHT22;11967;50.852;4.400;2024-02-04T05:18:09;12.30;99.90
23579;DHT22;11967;50.852;4.400;2024-02-04T05:20:35;12.20;99.90
23579;DHT22;11967;50.852;4.400;2024-02-04T05:23:00;12.30;99.90
23579;DHT22;11967;50.852;4.400;2024-02-04T05:25:26;12.30;99.90
23579;DHT22;11967;50.852;4.400;2024-02-04T05:27:51;12.40;99.90
23579;DHT22;11967;50.852;4.400;2024-02-04T05:30:17;12.30;99.90
23579;DHT22;11967;50.852;4.400;2024-02-04T05:32:43;12.40;99.90
23579;DHT22;11967;50.852;4.400;2024-02-04T05:35:10;12.40;99.90
23579;DHT22;11967;50.852;4.400;2024-02-04T05:37:36;12.40;99.90
23579;DHT22;11967;50.852;4.400;2024-02-04T05:40:03;12.40;99.90
23579;DHT22;11967;50.852;4.400;2024-02-04T05:42:30;12.30;99.90
23579;DHT22;11967;50.852;4.400;2024-02-04T05:44:59;12.30;99.90
23579;DHT22;11967;50.852;4.400;2024-02-04T05:47:25;12.40;99.90
23579;DHT22;11967;50.852;4.400;2024-02-04T05:49:50;12.40;99.90
23579;DHT22;11967;50.852;4.400;2024-02-04T05:52:16;12.50;99.90
23579;DHT22;11967;50.852;4.400;2024-02-04T05:54:42;12.50;99.90
23579;DHT22;11967;50.852;4.400;2024-02-04T05:57:07;12.30;99.90
23579;DHT22;11967;50.852;4.400;2024-02-04T05:59:34;12.30;99.90
23579;DHT22;11967;50.852;4.400;2024-02-04T06:02:00;12.20;99.90
23579;DHT22;11967;50.852;4.400;2024-02-04T06:04:25;12.30;99.90
23579;DHT22;11967;50.852;4.400;2024-02-04T06:06:51;12.30;99.90
23579;DHT22;11967;50.852;4.400;2024-02-04T06:09:17;12.30;99.90
23579;DHT22;11967;50.852;4.400;2024-02-04T06:11:46;12.20;99.90
23579;DHT22;11967;50.852;4.400;2024-02-04T06:14:12;12.30;99.90
23579;DHT22;11967;50.852;4.400;2024-02-04T06:16:38;12.30;99.90
23579;DHT22;11967;50.852;4.400;2024-02-04T06:19:04;12.20;99.90
23579;DHT22;11967;50.852;4.400;2024-02-04T06:21:30;12.20;99.90
23579;DHT22;11967;50.852;4.400;2024-02-04T06:23:55;12.20;99.90
23579;DHT22;11967;50.852;4.400;2024-02-04T06:26:21;12.10;99.90
23579;DHT22;11967;50.852;4.400;2024-02-04T06:28:47;12.10;99.90
23579;DHT22;11967;50.852;4.400;2024-02-04T06:31:15;12.20;99.90
23579;DHT22;11967;50.852;4.400;2024-02-04T06:33:40;12.20;99.90
23579;DHT22;11967;50.852;4.400;2024-02-04T06:36:10;12.10;99.90
23579;DHT22;11967;50.852;4.400;2024-02-04T06:38:36;12.20;99.90
23579;DHT22;11967;50.852;4.400;2024-02-04T06:41:01;12.10;99.90
23579;DHT22;11967;50.852;4.400;2024-02-04T06:43:28;12.10;99.90
23579;DHT22;11967;50.852;4.400;2024-02-04T06:45:54;12.20;99.90
23579;DHT22;11967;50.852;4.400;2024-02-04T06:48:19;12.20;99.90
23579;DHT22;11967;50.852;4.400;2024-02-04T06:50:45;12.20;99.90
23579;DHT22;11967;50.852;4.400;2024-02-04T06:53:13;12.20;99.90
23579;DHT22;11967;50.852;4.400;2024-02-04T06:55:39;12.20;99.90
23579;DHT22;11967;50.852;4.400;2024-02-04T06:58:05;12.20;99.90
23579;DHT22;11967;50.852;4.400;2024-02-04T07:00:30;12.20;99.90
23579;DHT22;11967;50.852;4.400;2024-02-04T07:02:56;12.10;99.90
23579;DHT22;11967;50.852;4.400;2024-02-04T07:05:22;12.10;99.90
23579;DHT22;11967;50.852;4.400;2024-02-04T07:07:48;12.00;99.90
23579;DHT22;11967;50.852;4.400;2024-02-04T07:10:15;12.10;99.90
23579;DHT22;11967;50.852;4.400;2024-02-04T07:12:41;12.10;99.90
23579;DHT22;11967;50.852;4.400;2024-02-04T07:15:07;12.20;99.90
23579;DHT22;11967;50.852;4.400;2024-02-04T07:17:34;12.10;99.90
23579;DHT22;11967;50.852;4.400;2024-02-04T07:20:01;12.10;99.90
23579;DHT22;11967;50.852;4.400;2024-02-04T07:22:26;12.20;99.90
23579;DHT22;11967;50.852;4.400;2024-02-04T07:24:52;12.20;99.90
23579;DHT22;11967;50.852;4.400;2024-02-04T07:27:17;12.20;99.90
23579;DHT22;11967;50.852;4.400;2024-02-04T07:29:43;12.20;99.90
23579;DHT22;11967;50.852;4.400;2024-02-04T07:32:09;12.30;99.90
23579;DHT22;11967;50.852;4.400;2024-02-04T07:34:35;12.30;99.90
23579;DHT22;11967;50.852;4.400;2024-02-04T07:37:01;12.30;99.90
23579;DHT22;11967;50.852;4.400;2024-02-04T07:39:26;12.30;99.90
23579;DHT22;11967;50.852;4.400;2024-02-04T07:41:52;12.30;99.90
23579;DHT22;11967;50.852;4.400;2024-02-04T07:44:19;12.30;99.90
23579;DHT22;11967;50.852;4.400;2024-02-04T07:46:45;12.40;99.90
23579;DHT22;11967;50.852;4.400;2024-02-04T07:49:10;12.20;99.90
23579;DHT22;11967;50.852;4.400;2024-02-04T07:51:36;12.20;99.90
23579;DHT22;11967;50.852;4.400;2024-02-04T07:54:03;12.10;99.90
23579;DHT22;11967;50.852;4.400;2024-02-04T07:56:29;12.20;99.90
23579;DHT22;11967;50.852;4.400;2024-02-04T07:58:55;12.20;99.90
23579;DHT22;11967;50.852;4.400;2024-02-04T08:01:20;12.20;99.90
23579;DHT22;11967;50.852;4.400;2024-02-04T08:03:46;12.30;99.90
23579;DHT22;11967;50.852;4.400;2024-02-04T08:06:12;12.30;99.90
23579;DHT22;11967;50.852;4.400;2024-02-04T08:08:38;12.20;99.90
23579;DHT22;11967;50.852;4.400;2024-02-04T08:11:04;12.30;99.90
23579;DHT22;11967;50.852;4.400;2024-02-04T08:13:30;12.30;99.90
23579;DHT22;11967;50.852;4.400;2024-02-04T08:15:55;12.30;99.90
23579;DHT22;11967;50.852;4.400;2024-02-04T08:18:22;12.20;99.90
23579;DHT22;11967;50.852;4.400;2024-02-04T08:20:48;12.20;99.90
23579;DHT22;11967;50.852;4.400;2024-02-04T08:23:13;12.20;99.90
23579;DHT22;11967;50.852;4.400;2024-02-04T08:25:39;12.20;99.90
23579;DHT22;11967;50.852;4.400;2024-02-04T08:28:05;12.20;99.90
23579;DHT22;11967;50.852;4.400;2024-02-04T08:30:30;12.30;99.90
23579;DHT22;11967;50.852;4.400;2024-02-04T08:32:57;12.20;99.90
23579;DHT22;11967;50.852;4.400;2024-02-04T08:35:22;12.20;99.90
23579;DHT22;11967;50.852;4.400;2024-02-04T08:37:48;12.30;99.90
23579;DHT22;11967;50.852;4.400;2024-02-04T08:40:13;12.20;99.90
23579;DHT22;11967;50.852;4.400;2024-02-04T08:42:39;12.20;99.90
23579;DHT22;11967;50.852;4.400;2024-02-04T08:45:06;12.20;99.90
23579;DHT22;11967;50.852;4.400;2024-02-04T08:47:31;12.30;99.90
23579;DHT22;11967;50.852;4.400;2024-02-04T08:49:57;12.30;99.90
23579;DHT22;11967;50.852;4.400;2024-02-04T08:52:23;12.30;99.90
23579;DHT22;11967;50.852;4.400;2024-02-04T08:54:50;12.30;99.90
23579;DHT22;11967;50.852;4.400;2024-02-04T08:57:15;12.20;99.90
23579;DHT22;11967;50.852;4.400;2024-02-04T08:59:43;12.20;99.90
23579;DHT22;11967;50.852;4.400;2024-02-04T09:02:08;12.20;99.90
23579;DHT22;11967;50.852;4.400;2024-02-04T09:04:34;12.20;99.90
23579;DHT22;11967;50.852;4.400;2024-02-04T09:07:07;12.20;99.90
23579;DHT22;11967;50.852;4.400;2024-02-04T09:09:33;12.30;99.90
23579;DHT22;11967;50.852;4.400;2024-02-04T09:11:58;12.20;99.90
23579;DHT22;11967;50.852;4.400;2024-02-04T09:14:24;12.30;99.90
23579;DHT22;11967;50.852;4.400;2024-02-04T09:16:50;12.30;99.90
23579;DHT22;11967;50.852;4.400;2024-02-04T09:19:15;12.30;99.90
23579;DHT22;11967;50.852;4.400;2024-02-04T09:21:41;12.30;99.90
23579;DHT22;11967;50.852;4.400;2024-02-04T09:24:07;12.30;99.90
23579;DHT22;11967;50.852;4.400;2024-02-04T09:26:33;12.40;99.90
23579;DHT22;11967;50.852;4.400;2024-02-04T09:28:59;12.40;99.90
23579;DHT22;11967;50.852;4.400;2024-02-04T09:31:26;12.40;99.90
23579;DHT22;11967;50.852;4.400;2024-02-04T09:33:56;12.30;99.90
23579;DHT22;11967;50.852;4.400;2024-02-04T09:36:23;12.30;99.90
23579;DHT22;11967;50.852;4.400;2024-02-04T09:38:48;12.40;99.90
23579;DHT22;11967;50.852;4.400;2024-02-04T09:41:14;12.40;99.90
23579;DHT22;11967;50.852;4.400;2024-02-04T09:43:40;12.30;99.90
23579;DHT22;11967;50.852;4.400;2024-02-04T09:46:06;12.10;99.90
23579;DHT22;11967;50.852;4.400;2024-02-04T09:48:33;12.20;99.90
23579;DHT22;11967;50.852;4.400;2024-02-04T09:50:59;12.20;99.90
23579;DHT22;11967;50.852;4.400;2024-02-04T09:53:44;12.40;99.90
23579;DHT22;11967;50.852;4.400;2024-02-04T09:56:11;12.40;99.90
23579;DHT22;11967;50.852;4.400;2024-02-04T09:58:38;12.50;99.90
23579;DHT22;11967;50.852;4.400;2024-02-04T10:01:07;12.50;99.90
23579;DHT22;11967;50.852;4.400;2024-02-04T10:03:36;12.40;99.90
23579;DHT22;11967;50.852;4.400;2024-02-04T10:06:01;12.30;99.90
23579;DHT22;11967;50.852;4.400;2024-02-04T10:08:27;12.40;99.90
23579;DHT22;11967;50.852;4.400;2024-02-04T10:10:53;12.30;99.90
23579;DHT22;11967;50.852;4.400;2024-02-04T10:13:20;12.40;99.90
23579;DHT22;11967;50.852;4.400;2024-02-04T10:15:48;12.40;99.90
23579;DHT22;11967;50.852;4.400;2024-02-04T10:18:14;12.50;99.90
23579;DHT22;11967;50.852;4.400;2024-02-04T10:20:39;12.60;99.90
23579;DHT22;11967;50.852;4.400;2024-02-04T10:23:05;12.70;99.90
23579;DHT22;11967;50.852;4.400;2024-02-04T10:25:31;12.60;99.90
23579;DHT22;11967;50.852;4.400;2024-02-04T10:27:57;12.40;99.90
23579;DHT22;11967;50.852;4.400;2024-02-04T10:30:24;12.50;99.90
23579;DHT22;11967;50.852;4.400;2024-02-04T10:32:53;12.50;99.90
23579;DHT22;11967;50.852;4.400;2024-02-04T10:35:23;12.50;99.90
23579;DHT22;11967;50.852;4.400;2024-02-04T10:37:52;12.40;99.90
23579;DHT22;11967;50.852;4.400;2024-02-04T10:40:19;12.40;99.90
23579;DHT22;11967;50.852;4.400;2024-02-04T10:42:45;12.40;99.90
23579;DHT22;11967;50.852;4.400;2024-02-04T10:45:11;12.40;99.90
23579;DHT22;11967;50.852;4.400;2024-02-04T10:47:38;12.40;99.90
23579;DHT22;11967;50.852;4.400;2024-02-04T10:50:04;12.30;99.90
23579;DHT22;11967;50.852;4.400;2024-02-04T10:52:36;12.40;99.90
23579;DHT22;11967;50.852;4.400;2024-02-04T10:55:07;12.40;99.90
23579;DHT22;11967;50.852;4.400;2024-02-04T10:57:34;12.50;99.90
23579;DHT22;11967;50.852;4.400;2024-02-04T11:00:02;12.50;99.90
23579;DHT22;11967;50.852;4.400;2024-02-04T11:02:31;12.50;99.90
23579;DHT22;11967;50.852;4.400;2024-02-04T11:05:03;12.40;99.90
23579;DHT22;11967;50.852;4.400;2024-02-04T11:07:33;12.30;99.90
23579;DHT22;11967;50.852;4.400;2024-02-04T11:10:00;12.30;99.90
23579;DHT22;11967;50.852;4.400;2024-02-04T11:12:28;12.20;99.90
23579;DHT22;11967;50.852;4.400;2024-02-04T11:14:56;12.30;99.90
23579;DHT22;11967;50.852;4.400;2024-02-04T11:25:46;12.50;99.90
23579;DHT22;11967;50.852;4.400;2024-02-04T11:28:13;12.50;99.90
23579;DHT22;11967;50.852;4.400;2024-02-04T11:30:42;12.60;99.90
23579;DHT22;11967;50.852;4.400;2024-02-04T11:33:11;12.50;99.90
23579;DHT22;11967;50.852;4.400;2024-02-04T11:35:37;12.60;99.90
23579;DHT22;11967;50.852;4.400;2024-02-04T11:38:03;12.60;99.90
23579;DHT22;11967;50.852;4.400;2024-02-04T11:40:36;12.50;99.90
23579;DHT22;11967;50.852;4.400;2024-02-04T11:43:12;12.50;99.90
23579;DHT22;11967;50.852;4.400;2024-02-04T11:45:42;12.50;99.90
23579;DHT22;11967;50.852;4.400;2024-02-04T11:48:09;12.60;99.90
23579;DHT22;11967;50.852;4.400;2024-02-04T11:50:35;12.60;99.90
23579;DHT22;11967;50.852;4.400;2024-02-04T11:53:10;12.50;99.90
23579;DHT22;11967;50.852;4.400;2024-02-04T11:55:40;12.50;99.90
23579;DHT22;11967;50.852;4.400;2024-02-04T11:58:06;12.60;99.90
23579;DHT22;11967;50.852;4.400;2024-02-04T12:00:33;12.60;99.90
23579;DHT22;11967;50.852;4.400;2024-02-04T12:03:03;12.60;99.90
23579;DHT22;11967;50.852;4.400;2024-02-04T12:05:34;12.60;99.90
23579;DHT22;11967;50.852;4.400;2024-02-04T12:08:04;12.60;99.90
23579;DHT22;11967;50.852;4.400;2024-02-04T12:10:32;12.60;99.90
23579;DHT22;11967;50.852;4.400;2024-02-04T12:13:08;12.50;99.90
23579;DHT22;11967;50.852;4.400;2024-02-04T12:15:37;12.60;99.90
23579;DHT22;11967;50.852;4.400;2024-02-04T12:18:07;12.50;99.90
23579;DHT22;11967;50.852;4.400;2024-02-04T12:20:33;12.40;99.90
23579;DHT22;11967;50.852;4.400;2024-02-04T12:22:59;12.40;99.90
23579;DHT22;11967;50.852;4.400;2024-02-04T12:25:24;12.40;99.90
23579;DHT22;11967;50.852;4.400;2024-02-04T12:27:54;12.40;99.90
23579;DHT22;11967;50.852;4.400;2024-02-04T12:30:19;12.40;99.90
23579;DHT22;11967;50.852;4.400;2024-02-04T12:33:01;12.30;99.90
23579;DHT22;11967;50.852;4.400;2024-02-04T12:35:28;12.40;99.90
23579;DHT22;11967;50.852;4.400;2024-02-04T12:37:54;12.40;99.90
23579;DHT22;11967;50.852;4.400;2024-02-04T12:40:24;12.40;99.90
23579;DHT22;11967;50.852;4.400;2024-02-04T12:45:21;12.40;99.90
23579;DHT22;11967;50.852;4.400;2024-02-04T12:47:50;12.40;99.90
23579;DHT22;11967;50.852;4.400;2024-02-04T12:50:16;12.30;99.90
23579;DHT22;11967;50.852;4.400;2024-02-04T12:52:46;12.20;99.90
23579;DHT22;11967;50.852;4.400;2024-02-04T12:55:26;12.30;99.90
23579;DHT22;11967;50.852;4.400;2024-02-04T12:58:07;12.30;99.90
23579;DHT22;11967;50.852;4.400;2024-02-04T13:00:37;12.20;99.90
23579;DHT22;11967;50.852;4.400;2024-02-04T13:03:04;12.30;99.90
23579;DHT22;11967;50.852;4.400;2024-02-04T13:05:30;12.30;99.90
23579;DHT22;11967;50.852;4.400;2024-02-04T13:07:58;12.40;99.90
23579;DHT22;11967;50.852;4.400;2024-02-04T13:10:30;12.30;99.90
23579;DHT22;11967;50.852;4.400;2024-02-04T13:13:07;12.40;99.90
23579;DHT22;11967;50.852;4.400;2024-02-04T13:15:43;12.40;99.90
23579;DHT22;11967;50.852;4.400;2024-02-04T13:18:09;12.30;99.90
23579;DHT22;11967;50.852;4.400;2024-02-04T13:20:40;12.30;99.90
23579;DHT22;11967;50.852;4.400;2024-02-04T13:23:07;12.30;99.90
23579;DHT22;11967;50.852;4.400;2024-02-04T13:25:33;12.30;99.90
23579;DHT22;11967;50.852;4.400;2024-02-04T13:27:59;12.20;99.90
23579;DHT22;11967;50.852;4.400;2024-02-04T13:30:25;12.20;99.90
23579;DHT22;11967;50.852;4.400;2024-02-04T13:32:51;12.20;99.90
23579;DHT22;11967;50.852;4.400;2024-02-04T13:35:17;12.30;99.90
23579;DHT22;11967;50.852;4.400;2024-02-04T13:37:47;12.30;99.90
23579;DHT22;11967;50.852;4.400;2024-02-04T13:40:17;12.20;99.90
23579;DHT22;11967;50.852;4.400;2024-02-04T13:42:43;12.20;99.90
23579;DHT22;11967;50.852;4.400;2024-02-04T13:45:09;12.20;99.90
23579;DHT22;11967;50.852;4.400;2024-02-04T13:47:35;12.20;99.90
23579;DHT22;11967;50.852;4.400;2024-02-04T13:50:01;12.30;99.90
23579;DHT22;11967;50.852;4.400;2024-02-04T13:52:28;12.30;99.90
23579;DHT22;11967;50.852;4.400;2024-02-04T13:54:54;12.40;99.90
23579;DHT22;11967;50.852;4.400;2024-02-04T13:57:19;12.40;99.90
23579;DHT22;11967;50.852;4.400;2024-02-04T13:59:45;12.40;99.90
23579;DHT22;11967;50.852;4.400;2024-02-04T14:02:11;12.40;99.90
23579;DHT22;11967;50.852;4.400;2024-02-04T14:04:36;12.30;99.90
23579;DHT22;11967;50.852;4.400;2024-02-04T14:07:02;12.40;99.90
23579;DHT22;11967;50.852;4.400;2024-02-04T14:09:28;12.40;99.90
23579;DHT22;11967;50.852;4.400;2024-02-04T14:11:54;12.50;99.90
23579;DHT22;11967;50.852;4.400;2024-02-04T14:14:23;12.40;99.90
23579;DHT22;11967;50.852;4.400;2024-02-04T14:16:49;12.50;99.90
23579;DHT22;11967;50.852;4.400;2024-02-04T14:19:17;12.40;99.90
23579;DHT22;11967;50.852;4.400;2024-02-04T14:21:43;12.50;99.90
23579;DHT22;11967;50.852;4.400;2024-02-04T14:24:09;12.50;99.90
23579;DHT22;11967;50.852;4.400;2024-02-04T14:26:35;12.50;99.90
23579;DHT22;11967;50.852;4.400;2024-02-04T14:29:00;12.40;99.90
23579;DHT22;11967;50.852;4.400;2024-02-04T14:31:26;12.40;99.90
23579;DHT22;11967;50.852;4.400;2024-02-04T14:33:52;12.50;99.90
23579;DHT22;11967;50.852;4.400;2024-02-04T14:36:17;12.40;99.90
23579;DHT22;11967;50.852;4.400;2024-02-04T14:38:43;12.50;99.90
23579;DHT22;11967;50.852;4.400;2024-02-04T14:41:09;12.50;99.90
23579;DHT22;11967;50.852;4.400;2024-02-04T14:43:38;12.50;99.90
23579;DHT22;11967;50.852;4.400;2024-02-04T14:46:04;12.50;99.90
23579;DHT22;11967;50.852;4.400;2024-02-04T14:48:30;12.50;99.90
23579;DHT22;11967;50.852;4.400;2024-02-04T14:50:55;12.50;99.90
23579;DHT22;11967;50.852;4.400;2024-02-04T14:53:23;12.40;99.90
23579;DHT22;11967;50.852;4.400;2024-02-04T14:55:49;12.50;99.90
23579;DHT22;11967;50.852;4.400;2024-02-04T14:58:15;12.60;99.90
23579;DHT22;11967;50.852;4.400;2024-02-04T15:00:41;12.60;99.90
23579;DHT22;11967;50.852;4.400;2024-02-04T15:03:06;12.60;99.90
23579;DHT22;11967;50.852;4.400;2024-02-04T15:05:32;12.60;99.90
23579;DHT22;11967;50.852;4.400;2024-02-04T15:07:58;12.50;99.90
23579;DHT22;11967;50.852;4.400;2024-02-04T15:10:23;12.50;99.90
23579;DHT22;11967;50.852;4.400;2024-02-04T15:12:49;12.40;99.90
23579;DHT22;11967;50.852;4.400;2024-02-04T15:15:18;12.30;99.90
23579;DHT22;11967;50.852;4.400;2024-02-04T15:17:44;12.40;99.90
23579;DHT22;11967;50.852;4.400;2024-02-04T15:20:10;12.40;99.90
23579;DHT22;11967;50.852;4.400;2024-02-04T15:22:37;12.40;99.90
23579;DHT22;11967;50.852;4.400;2024-02-04T15:25:05;12.50;99.90
23579;DHT22;11967;50.852;4.400;2024-02-04T15:27:31;12.60;99.90
23579;DHT22;11967;50.852;4.400;2024-02-04T15:29:57;12.60;99.90
23579;DHT22;11967;50.852;4.400;2024-02-04T15:32:23;12.60;99.90
23579;DHT22;11967;50.852;4.400;2024-02-04T15:34:50;12.60;99.90
23579;DHT22;11967;50.852;4.400;2024-02-04T15:37:16;12.60;99.90
23579;DHT22;11967;50.852;4.400;2024-02-04T15:39:43;12.60;99.90
23579;DHT22;11967;50.852;4.400;2024-02-04T15:42:09;12.60;99.90
23579;DHT22;11967;50.852;4.400;2024-02-04T15:44:35;12.60;99.90